createdAt,value
2023-02-14T06:03:40.578Z,100275.73
2023-02-14T06:06:10.177Z,100272.64
2023-02-14T06:08:42.338Z,100277.16
2023-02-14T06:11:10.683Z,100283.20
2023-02-14T06:13:40.456Z,100282.98
2023-02-14T06:16:08.428Z,100286.06
2023-02-14T06:18:36.871Z,100289.78
2023-02-14T06:21:05.649Z,100288.27
2023-02-14T06:23:33.975Z,100286.70
2023-02-14T06:26:01.933Z,100284.88
2023-02-14T06:28:30.232Z,100289.25
2023-02-14T06:31:00.040Z,100292.44
2023-02-14T06:33:28.135Z,100292.45
2023-02-14T06:35:57.076Z,100297.11
2023-02-14T06:38:25.674Z,100301.43
2023-02-14T06:40:54.436Z,100300.36
2023-02-14T06:43:23.329Z,100299.67
2023-02-14T06:45:52.052Z,100304.35
2023-02-14T06:48:21.158Z,100301.56
2023-02-14T06:50:49.226Z,100300.62
2023-02-14T06:53:17.194Z,100297.96
2023-02-14T06:55:45.294Z,100299.70
2023-02-14T06:58:14.757Z,100294.48
2023-02-14T07:00:43.430Z,100288.89
2023-02-14T07:03:12.076Z,100286.27
2023-02-14T07:05:40.703Z,100293.86
2023-02-14T07:08:11.880Z,100296.03
2023-02-14T07:10:41.473Z,100288.69
2023-02-14T07:13:10.305Z,100293.14
2023-02-14T07:15:38.606Z,100295.82
2023-02-14T07:18:08.802Z,100290.30
2023-02-14T07:20:39.135Z,100289.55
2023-02-14T07:23:15.044Z,100290.95
2023-02-14T07:25:45.533Z,100294.23
2023-02-14T07:28:15.078Z,100293.92
2023-02-14T07:30:43.461Z,100295.63
2023-02-14T07:33:13.077Z,100294.23
2023-02-14T07:35:43.587Z,100299.14
2023-02-14T07:38:14.169Z,100298.21
2023-02-14T07:40:43.488Z,100293.94
2023-02-14T07:43:14.015Z,100280.64
2023-02-14T07:45:45.068Z,100282.33
2023-02-14T07:48:14.605Z,100291.16
2023-02-14T07:50:42.945Z,100291.77
2023-02-14T07:53:11.663Z,100296.70
2023-02-14T07:55:41.401Z,100298.61
2023-02-14T07:58:09.918Z,100302.69
2023-02-14T08:00:38.502Z,100293.24
2023-02-14T08:03:14.612Z,100296.86
2023-02-14T08:05:43.765Z,100288.46
2023-02-14T08:08:13.314Z,100288.48
2023-02-14T08:10:57.175Z,100294.52
2023-02-14T08:13:26.150Z,100285.34
2023-02-14T08:16:09.852Z,100283.90
2023-02-14T08:18:41.014Z,100289.20
2023-02-14T08:21:10.597Z,100287.79
2023-02-14T08:23:47.570Z,100293.14
2023-02-14T08:26:17.259Z,100292.20
2023-02-14T08:28:50.110Z,100290.45
2023-02-14T08:31:35.539Z,100291.39
2023-02-14T08:34:15.134Z,100303.04
2023-02-14T08:36:43.842Z,100300.88
2023-02-14T08:39:15.749Z,100294.89
2023-02-14T08:41:48.188Z,100295.05
2023-02-14T08:44:16.777Z,100296.45
2023-02-14T08:46:47.616Z,100297.30
2023-02-14T08:49:15.984Z,100300.72
2023-02-14T08:51:57.196Z,100308.45
2023-02-14T08:54:40.512Z,100311.23
2023-02-14T08:57:14.065Z,100307.50
2023-02-14T08:59:43.601Z,100318.48
2023-02-14T09:02:20.141Z,100317.19
2023-02-14T09:04:50.198Z,100311.06
2023-02-14T09:07:19.985Z,100314.89
2023-02-14T09:09:52.322Z,100314.05
2023-02-14T09:12:28.085Z,100319.55
2023-02-14T09:14:59.953Z,100315.35
2023-02-14T09:17:31.090Z,100307.12
2023-02-14T09:20:00.350Z,100317.10
2023-02-14T09:22:29.768Z,100318.04
2023-02-14T09:24:59.078Z,100325.84
2023-02-14T09:27:27.559Z,100325.63
2023-02-14T09:29:59.554Z,100328.83
2023-02-14T09:32:29.753Z,100327.16
2023-02-14T09:35:18.384Z,100325.22
2023-02-14T09:38:06.750Z,100320.33
2023-02-14T09:40:38.571Z,100310.55
2023-02-14T09:43:26.097Z,100307.77
2023-02-14T09:45:56.829Z,100306.11
2023-02-14T09:48:48.414Z,100306.60
2023-02-14T09:51:32.573Z,100310.20
2023-02-14T09:54:04.015Z,100313.20
2023-02-14T09:57:00.508Z,100308.48
2023-02-14T10:00:00.533Z,100305.33
2023-02-14T10:02:53.933Z,100305.02
2023-02-14T10:05:30.131Z,100305.10
2023-02-14T10:08:19.070Z,100297.03
2023-02-14T10:10:53.853Z,100290.33
2023-02-14T10:13:42.322Z,100303.52
2023-02-14T10:16:27.252Z,100306.49
2023-02-14T10:19:26.966Z,100300.77
2023-02-14T10:22:05.469Z,100300.11
2023-02-14T10:24:53.056Z,100295.19
2023-02-14T10:27:35.443Z,100294.66
2023-02-14T10:30:19.630Z,100284.23
2023-02-14T10:32:50.140Z,100282.97
2023-02-14T10:35:33.505Z,100278.95
2023-02-14T10:38:37.583Z,100279.74
2023-02-14T10:42:10.529Z,100280.60
2023-02-14T10:47:52.355Z,100276.40
2023-02-14T10:50:31.020Z,100279.43
2023-02-14T10:53:24.969Z,100275.84
2023-02-14T10:56:10.209Z,100279.07
2023-02-14T10:58:47.878Z,100277.14
2023-02-14T11:01:53.648Z,100273.84
2023-02-14T11:04:33.122Z,100278.09
2023-02-14T11:07:02.992Z,100278.42
2023-02-14T11:09:34.624Z,100274.45
2023-02-14T11:12:07.044Z,100282.75
2023-02-14T11:14:45.192Z,100267.09
2023-02-14T11:17:33.224Z,100257.18
2023-02-14T11:20:25.627Z,100261.44
2023-02-14T11:23:03.440Z,100271.31
2023-02-14T11:25:39.274Z,100267.88
2023-02-14T11:28:16.146Z,100274.43
2023-02-14T11:30:45.825Z,100266.66
2023-02-14T11:33:34.945Z,100273.51
2023-02-14T11:36:08.176Z,100261.23
2023-02-14T11:39:11.069Z,100268.00
2023-02-14T11:41:53.755Z,100265.80
2023-02-14T11:44:25.116Z,100274.17
2023-02-14T11:47:22.367Z,100276.48
2023-02-14T11:50:13.616Z,100279.16
2023-02-14T11:52:49.669Z,100275.99
2023-02-14T11:55:30.474Z,100275.50
2023-02-14T11:58:01.127Z,100276.99
2023-02-14T12:00:32.072Z,100277.09
2023-02-14T12:03:06.415Z,100283.20
2023-02-14T12:05:37.395Z,100287.21
2023-02-14T12:08:10.097Z,100284.02
2023-02-14T12:10:42.589Z,100284.89
2023-02-14T12:13:11.121Z,100279.70
2023-02-14T12:15:44.326Z,100287.23
2023-02-14T12:18:37.239Z,100276.66
2023-02-14T12:21:24.470Z,100281.89
2023-02-14T12:24:31.572Z,100282.48
2023-02-14T12:27:17.282Z,100281.48
2023-02-14T12:29:53.057Z,100281.50
2023-02-14T12:32:27.528Z,100287.96
2023-02-14T12:35:19.385Z,100292.38
2023-02-14T12:38:13.201Z,100292.63
2023-02-14T12:41:05.689Z,100300.98
2023-02-14T12:44:07.916Z,100300.54
2023-02-14T12:47:05.024Z,100300.21
2023-02-14T12:50:23.070Z,100292.86
2023-02-14T12:53:24.543Z,100289.70
2023-02-14T12:56:16.281Z,100295.16
2023-02-14T12:58:53.756Z,100293.39
2023-02-14T13:01:50.643Z,100299.44
2023-02-14T13:04:29.298Z,100300.42
2023-02-14T13:07:01.782Z,100304.48
2023-02-14T13:09:40.331Z,100307.97
2023-02-14T13:12:54.277Z,100311.05
2023-02-14T13:15:29.654Z,100318.73
2023-02-14T13:18:12.889Z,100317.95
2023-02-14T13:20:58.016Z,100315.76
2023-02-14T13:23:27.675Z,100318.80
2023-02-14T13:26:18.108Z,100337.17
2023-02-14T13:29:07.803Z,100334.96
2023-02-14T13:31:37.227Z,100336.63
2023-02-14T13:34:18.136Z,100341.27
2023-02-14T13:36:46.366Z,100336.46
2023-02-14T13:39:31.245Z,100338.77
2023-02-14T13:42:07.132Z,100347.10
2023-02-14T13:44:50.626Z,100352.46
2023-02-14T13:47:31.605Z,100358.98
2023-02-14T13:50:05.618Z,100355.34
2023-02-14T13:52:47.433Z,100357.20
2023-02-14T13:55:23.779Z,100357.62
2023-02-14T13:58:09.508Z,100354.55
2023-02-14T14:00:41.765Z,100357.71
2023-02-14T14:03:39.127Z,100359.94
2023-02-14T14:06:15.844Z,100370.16
2023-02-14T14:08:55.836Z,100374.27
2023-02-14T14:11:24.083Z,100378.70
2023-02-14T14:14:30.400Z,100381.41
2023-02-14T14:16:59.901Z,100381.80
2023-02-14T14:19:37.947Z,100384.36
2023-02-14T14:22:11.742Z,100389.29
2023-02-14T14:25:13.443Z,100399.04
2023-02-14T14:27:47.725Z,100403.98
2023-02-14T14:30:38.282Z,100415.30
2023-02-14T14:33:27.456Z,100423.50
2023-02-14T14:35:59.580Z,100422.55
2023-02-14T14:38:28.017Z,100426.58
2023-02-14T14:40:59.953Z,100428.22
2023-02-14T14:43:33.747Z,100429.20
2023-02-14T14:46:03.094Z,100433.08
2023-02-14T14:48:33.524Z,100437.13
2023-02-14T14:51:04.902Z,100434.64
2023-02-14T14:53:38.016Z,100434.08
2023-02-14T14:56:06.207Z,100435.97
2023-02-14T14:58:39.446Z,100448.63
2023-02-14T15:01:15.099Z,100449.32
2023-02-14T15:03:48.947Z,100457.81
2023-02-14T15:06:20.705Z,100460.20
2023-02-14T15:08:52.195Z,100458.95
2023-02-14T15:11:44.811Z,100469.98
2023-02-14T15:14:20.302Z,100464.09
2023-02-14T15:16:52.027Z,100468.05
2023-02-14T15:19:46.953Z,100476.95
2023-02-14T15:22:23.968Z,100477.44
2023-02-14T15:24:54.462Z,100483.19
2023-02-14T15:27:24.385Z,100479.33
2023-02-14T15:29:57.416Z,100492.35
2023-02-14T15:32:33.472Z,100491.96
2023-02-14T15:35:10.555Z,100494.16
2023-02-14T15:37:39.855Z,100501.45
2023-02-14T15:40:09.798Z,100504.41
2023-02-14T15:42:41.914Z,100511.45
2023-02-14T15:45:16.987Z,100513.09
2023-02-14T15:47:46.775Z,100520.33
2023-02-14T15:50:18.261Z,100528.47
2023-02-14T15:52:46.754Z,100527.15
2023-02-14T15:55:20.642Z,100534.39
2023-02-14T15:58:00.426Z,100541.79
2023-02-14T16:00:29.978Z,100542.89
2023-02-14T16:03:05.860Z,100541.00
2023-02-14T16:05:35.889Z,100548.54
2023-02-14T16:08:23.233Z,100544.20
2023-02-14T16:11:05.990Z,100556.88
2023-02-14T16:13:37.363Z,100551.27
2023-02-14T16:16:09.694Z,100554.80
2023-02-14T16:18:40.439Z,100558.33
2023-02-14T16:21:14.600Z,100558.33
2023-02-14T16:23:45.736Z,100561.19
2023-02-14T16:26:14.220Z,100563.69
2023-02-14T16:28:43.501Z,100570.29
2023-02-14T16:31:13.735Z,100572.42
2023-02-14T16:33:43.125Z,100571.44
2023-02-14T16:36:23.975Z,100577.38
2023-02-14T16:38:53.299Z,100581.71
2023-02-14T16:41:27.417Z,100584.13
2023-02-14T16:43:56.005Z,100581.09
2023-02-14T16:46:32.631Z,100583.31
2023-02-14T16:49:05.330Z,100587.73
2023-02-14T16:51:35.470Z,100597.06
2023-02-14T16:54:07.840Z,100597.95
2023-02-14T16:56:43.946Z,100605.85
2023-02-14T16:59:13.267Z,100609.33
2023-02-14T17:01:41.824Z,100622.70
2023-02-14T17:04:12.669Z,100628.27
2023-02-14T17:06:42.975Z,100634.66
2023-02-14T17:09:14.508Z,100640.11
2023-02-14T17:11:47.344Z,100639.67
2023-02-14T17:14:18.233Z,100640.95
2023-02-14T17:16:48.675Z,100648.42
2023-02-14T17:19:17.912Z,100647.73
2023-02-14T17:21:46.657Z,100650.62
2023-02-14T17:24:16.124Z,100648.06
2023-02-14T17:26:45.620Z,100649.23
2023-02-14T17:29:13.572Z,100655.52
2023-02-14T17:31:42.073Z,100664.22
2023-02-14T17:34:11.932Z,100664.45
2023-02-14T17:36:40.410Z,100664.52
2023-02-14T17:39:08.665Z,100667.59
2023-02-14T17:41:36.833Z,100680.01
2023-02-14T17:44:07.373Z,100681.49
2023-02-14T17:46:35.683Z,100687.70
